createdAt,value
2023-11-24T00:00:32.880Z,102915.66
2023-11-24T00:03:00.042Z,102921.19
2023-11-24T00:05:26.891Z,102928.06
2023-11-24T00:07:53.942Z,102934.81
2023-11-24T00:10:20.959Z,102947.09
2023-11-24T00:12:47.779Z,102932.38
2023-11-24T00:15:14.618Z,102932.53
2023-11-24T00:17:41.441Z,102928.53
2023-11-24T00:20:12.798Z,102922.97
2023-11-24T00:22:41.476Z,102935.00
2023-11-24T00:25:11.699Z,102930.31
2023-11-24T00:27:42.188Z,102937.72
2023-11-24T00:30:09.823Z,102934.19
2023-11-24T00:32:37.605Z,102938.88
2023-11-24T00:35:08.417Z,102940.47
2023-11-24T00:37:36.426Z,102942.31
2023-11-24T00:40:04.283Z,102939.13
2023-11-24T00:42:33.584Z,102930.59
2023-11-24T00:45:03.554Z,102916.19
2023-11-24T00:47:32.366Z,102919.63
2023-11-24T00:50:00.262Z,102913.03
2023-11-24T00:52:28.269Z,102900.50
2023-11-24T00:54:58.812Z,102917.00
2023-11-24T00:57:26.943Z,102918.13
2023-11-24T00:59:55.043Z,102912.16
2023-11-24T01:02:22.206Z,102906.47
2023-11-24T01:04:50.332Z,102922.94
2023-11-24T01:07:19.944Z,102910.75
2023-11-24T01:09:48.478Z,102912.59
2023-11-24T01:12:16.320Z,102907.66
2023-11-24T01:14:46.177Z,102906.22
2023-11-24T01:17:13.617Z,102912.59
2023-11-24T01:19:40.669Z,102917.44
2023-11-24T01:22:08.556Z,102926.44
2023-11-24T01:24:36.116Z,102927.41
2023-11-24T01:27:03.806Z,102930.09
2023-11-24T01:29:32.998Z,102931.75
2023-11-24T01:31:59.810Z,102946.38
2023-11-24T01:34:26.692Z,102949.72
2023-11-24T01:36:53.657Z,102949.63
2023-11-24T01:39:20.834Z,102944.78
2023-11-24T01:41:47.786Z,102947.22
2023-11-24T01:44:14.555Z,102942.59
2023-11-24T01:46:41.435Z,102938.72
2023-11-24T01:49:10.395Z,102937.66
2023-11-24T01:51:37.932Z,102935.72
2023-11-24T01:54:05.892Z,102938.91
2023-11-24T01:56:32.790Z,102938.88
2023-11-24T01:59:00.412Z,102923.81
2023-11-24T02:01:29.750Z,102932.34
2023-11-24T02:03:56.915Z,102933.03
2023-11-24T02:06:24.887Z,102932.28
2023-11-24T02:08:52.162Z,102930.69
2023-11-24T02:11:19.098Z,102935.09
2023-11-24T02:13:49.863Z,102932.19
2023-11-24T02:16:17.234Z,102932.72
2023-11-24T02:18:44.332Z,102939.66
2023-11-24T02:21:12.239Z,102948.38
2023-11-24T02:23:39.039Z,102943.97
2023-11-24T02:26:05.996Z,102941.16
2023-11-24T02:28:32.787Z,102943.72
2023-11-24T02:31:02.557Z,102951.66
2023-11-24T02:33:29.368Z,102945.34
2023-11-24T02:35:56.999Z,102945.13
2023-11-24T02:38:23.861Z,102944.09
2023-11-24T02:40:51.814Z,102945.75
2023-11-24T02:43:18.613Z,102937.38
2023-11-24T02:45:45.931Z,102948.53
2023-11-24T02:48:13.316Z,102952.91
2023-11-24T02:50:40.154Z,102957.06
2023-11-24T02:53:06.941Z,102961.41
2023-11-24T02:55:34.264Z,102958.88
2023-11-24T02:58:02.391Z,102960.56
2023-11-24T03:00:29.427Z,102959.47
2023-11-24T03:02:57.104Z,102954.25
2023-11-24T03:05:23.968Z,102952.31
2023-11-24T03:07:50.756Z,102956.88
2023-11-24T03:10:18.143Z,102948.97
2023-11-24T03:12:45.064Z,102938.53
2023-11-24T03:15:12.686Z,102941.25
2023-11-24T03:17:39.645Z,102948.19
2023-11-24T03:20:06.910Z,102942.91
2023-11-24T03:22:33.736Z,102946.19
2023-11-24T03:25:00.526Z,102935.66
2023-11-24T03:27:28.625Z,102946.41
2023-11-24T03:29:55.497Z,102935.75
2023-11-24T03:32:22.357Z,102932.06
2023-11-24T03:34:49.723Z,102928.00
2023-11-24T03:37:16.754Z,102908.84
2023-11-24T03:39:43.730Z,102917.59
2023-11-24T03:42:10.645Z,102914.44
2023-11-24T03:44:39.504Z,102910.81
2023-11-24T03:47:07.200Z,102917.63
2023-11-24T03:49:34.325Z,102919.31
2023-11-24T03:52:01.169Z,102918.53
2023-11-24T03:54:28.026Z,102925.59
2023-11-24T03:56:55.361Z,102919.59
2023-11-24T03:59:22.181Z,102903.47
2023-11-24T04:01:49.067Z,102918.03
2023-11-24T04:04:16.022Z,102913.00
2023-11-24T04:06:43.014Z,102914.66
2023-11-24T04:09:11.102Z,102916.34
2023-11-24T04:11:38.062Z,102917.84
2023-11-24T04:14:04.888Z,102913.34
2023-11-24T04:16:31.953Z,102904.50
2023-11-24T04:18:58.909Z,102902.91
2023-11-24T04:21:25.713Z,102896.06
2023-11-24T04:23:52.493Z,102895.94
2023-11-24T04:26:19.583Z,102895.94
2023-11-24T04:28:46.386Z,102906.50
2023-11-24T04:31:13.200Z,102903.28
2023-11-24T04:33:40.102Z,102907.56
2023-11-24T04:36:07.809Z,102911.06
2023-11-24T04:38:34.690Z,102905.22
2023-11-24T04:41:03.222Z,102903.47
2023-11-24T04:43:30.067Z,102901.72
2023-11-24T04:45:56.971Z,102902.59
2023-11-24T04:48:24.507Z,102905.16
2023-11-24T04:50:51.290Z,102902.69
2023-11-24T04:53:18.253Z,102902.00
2023-11-24T04:55:45.055Z,102894.94
2023-11-24T04:58:11.943Z,102894.03
2023-11-24T05:00:38.759Z,102884.34
2023-11-24T05:03:06.761Z,102884.19
2023-11-24T05:05:33.545Z,102875.38
2023-11-24T05:08:00.312Z,102884.25
2023-11-24T05:10:27.160Z,102872.94
2023-11-24T05:12:54.021Z,102868.53
2023-11-24T05:15:20.910Z,102870.25
2023-11-24T05:17:47.765Z,102873.00
2023-11-24T05:20:15.899Z,102866.94
2023-11-24T05:22:42.755Z,102858.22
2023-11-24T05:25:09.966Z,102858.28
2023-11-24T05:27:36.941Z,102854.88
2023-11-24T05:30:09.321Z,102857.50
2023-11-24T05:32:39.035Z,102854.66
2023-11-24T05:35:06.339Z,102861.66
2023-11-24T05:37:33.274Z,102861.03
2023-11-24T05:40:02.641Z,102859.25
2023-11-24T05:42:29.998Z,102858.41
2023-11-24T05:44:56.829Z,102861.91
2023-11-24T05:47:23.806Z,102858.41
2023-11-24T05:49:52.850Z,102856.72
2023-11-24T05:52:21.652Z,102856.81
2023-11-24T05:54:49.707Z,102859.50
2023-11-24T05:57:16.665Z,102855.09
2023-11-24T05:59:43.623Z,102861.34
2023-11-24T06:02:11.014Z,102867.56
2023-11-24T06:04:38.087Z,102870.16
2023-11-24T06:07:05.697Z,102857.22
2023-11-24T06:09:34.224Z,102852.91
2023-11-24T06:12:01.095Z,102852.94
2023-11-24T06:14:28.062Z,102856.56
2023-11-24T06:16:54.872Z,102853.19
2023-11-24T06:19:21.705Z,102855.72
2023-11-24T06:21:48.610Z,102849.47
2023-11-24T06:24:15.940Z,102847.72
2023-11-24T06:26:42.829Z,102848.66
2023-11-24T06:29:09.675Z,102845.19
2023-11-24T06:31:36.533Z,102847.13
2023-11-24T06:34:03.626Z,102843.34
2023-11-24T06:36:31.969Z,102851.34
2023-11-24T06:39:00.308Z,102842.56
2023-11-24T06:41:27.054Z,102841.03
2023-11-24T06:43:53.856Z,102848.28
2023-11-24T06:46:21.295Z,102850.00
2023-11-24T06:48:50.036Z,102853.44
2023-11-24T06:51:16.832Z,102837.91
2023-11-24T06:53:43.620Z,102851.84
2023-11-24T06:56:10.412Z,102852.63
2023-11-24T06:58:37.172Z,102843.94
2023-11-24T07:01:06.207Z,102850.00
2023-11-24T07:03:33.185Z,102850.84
2023-11-24T07:06:01.344Z,102853.53
2023-11-24T07:08:29.164Z,102851.13
2023-11-24T07:10:55.981Z,102848.75
2023-11-24T07:13:22.908Z,102856.56
2023-11-24T07:15:51.426Z,102855.91
2023-11-24T07:18:18.272Z,102842.53
2023-11-24T07:20:46.611Z,102842.59
2023-11-24T07:23:14.724Z,102843.34
2023-11-24T07:25:41.613Z,102840.75
2023-11-24T07:28:10.534Z,102835.44
2023-11-24T07:30:37.798Z,102843.28
2023-11-24T07:33:04.670Z,102844.13
2023-11-24T07:35:31.527Z,102843.22
2023-11-24T07:37:58.271Z,102841.56
2023-11-24T07:40:26.947Z,102846.94
2023-11-24T07:42:53.802Z,102840.81
2023-11-24T07:45:20.707Z,102837.31
2023-11-24T07:47:47.610Z,102839.84
2023-11-24T07:50:14.924Z,102832.75
2023-11-24T07:52:45.218Z,102836.19
2023-11-24T07:55:14.877Z,102829.41
2023-11-24T07:57:43.089Z,102835.44
2023-11-24T08:00:14.397Z,102832.69
2023-11-24T08:02:43.358Z,102838.88
2023-11-24T08:05:10.413Z,102847.00
2023-11-24T08:07:37.809Z,102846.94
2023-11-24T08:10:05.619Z,102862.56
2023-11-24T08:12:32.533Z,102853.78
2023-11-24T08:15:01.653Z,102852.03
2023-11-24T08:17:28.670Z,102852.84
2023-11-24T08:19:55.796Z,102855.41
2023-11-24T08:22:22.642Z,102854.56
2023-11-24T08:24:49.585Z,102859.84
2023-11-24T08:27:16.400Z,102862.47
2023-11-24T08:29:43.417Z,102864.19
2023-11-24T08:32:11.692Z,102866.00
2023-11-24T08:34:39.140Z,102859.88
2023-11-24T08:37:07.628Z,102866.03
2023-11-24T08:39:35.210Z,102857.34
2023-11-24T08:42:02.616Z,102864.25
2023-11-24T08:44:29.403Z,102867.63
2023-11-24T08:46:56.285Z,102873.69
2023-11-24T08:49:23.492Z,102868.53
2023-11-24T08:51:50.528Z,102864.72
2023-11-24T08:54:17.502Z,102865.44
2023-11-24T08:56:45.039Z,102860.97
2023-11-24T08:59:12.674Z,102865.09
2023-11-24T09:01:39.694Z,102859.63
2023-11-24T09:04:07.220Z,102863.88
2023-11-24T09:06:38.023Z,102856.72
2023-11-24T09:09:08.372Z,102860.91
2023-11-24T09:11:36.058Z,102859.84
2023-11-24T09:14:09.488Z,102853.53
2023-11-24T09:16:36.444Z,102846.81
2023-11-24T09:19:03.384Z,102848.47
2023-11-24T09:21:35.268Z,102848.38
2023-11-24T09:24:02.827Z,102850.06
2023-11-24T09:26:30.288Z,102845.75
2023-11-24T09:28:57.136Z,102843.00
2023-11-24T09:31:24.172Z,102846.44
2023-11-24T09:33:52.710Z,102850.66
2023-11-24T09:36:19.669Z,102851.44
2023-11-24T09:38:49.654Z,102845.16
2023-11-24T09:41:17.469Z,102839.28
2023-11-24T09:43:44.262Z,102835.31
2023-11-24T09:46:12.289Z,102834.47
2023-11-24T09:48:44.419Z,102835.00
2023-11-24T09:51:13.497Z,102842.88
2023-11-24T09:53:42.538Z,102847.44
2023-11-24T09:56:09.432Z,102848.03
2023-11-24T09:58:36.605Z,102844.75
2023-11-24T10:01:16.694Z,102848.44
2023-11-24T10:03:48.195Z,102846.53
2023-11-24T10:06:15.326Z,102851.66
2023-11-24T10:08:42.366Z,102857.88
2023-11-24T10:11:17.138Z,102859.81
2023-11-24T10:13:46.471Z,102849.03
2023-11-24T10:16:14.580Z,102850.97
2023-11-24T10:18:42.608Z,102845.91
2023-11-24T10:21:23.545Z,102847.69
2023-11-24T10:23:58.470Z,102836.19
2023-11-24T10:26:27.095Z,102848.22
2023-11-24T10:28:56.967Z,102834.84
2023-11-24T10:31:24.392Z,102841.22
2023-11-24T10:33:52.665Z,102829.72
2023-11-24T10:36:26.211Z,102831.16
2023-11-24T10:39:07.868Z,102825.09
2023-11-24T10:41:42.020Z,102819.50
2023-11-24T10:44:11.288Z,102820.88
2023-11-24T10:46:45.396Z,102824.66
2023-11-24T10:49:21.475Z,102822.09
2023-11-24T10:51:57.993Z,102825.56
2023-11-24T10:54:31.708Z,102818.81
2023-11-24T10:57:01.757Z,102815.03
2023-11-24T10:59:31.628Z,102814.72
2023-11-24T11:02:02.100Z,102810.91
2023-11-24T11:04:30.432Z,102802.78
2023-11-24T11:07:11.121Z,102806.81
2023-11-24T11:09:49.464Z,102801.44
2023-11-24T11:12:39.689Z,102807.78
2023-11-24T11:15:10.722Z,102805.81
2023-11-24T11:17:39.029Z,102806.31
2023-11-24T11:20:14.187Z,102796.94
2023-11-24T11:22:45.028Z,102802.28
2023-11-24T11:25:15.433Z,102804.47
2023-11-24T11:27:44.100Z,102788.03
2023-11-24T11:30:16.032Z,102788.53
2023-11-24T11:32:43.884Z,102794.56
2023-11-24T11:35:12.067Z,102784.34
2023-11-24T11:37:38.989Z,102785.31
2023-11-24T11:40:13.227Z,102788.56
2023-11-24T11:42:53.767Z,102779.59
2023-11-24T11:45:31.136Z,102765.84
2023-11-24T11:48:05.314Z,102767.03
2023-11-24T11:50:35.121Z,102772.81
2023-11-24T11:53:03.485Z,102765.06
2023-11-24T11:55:30.658Z,102764.53
2023-11-24T11:57:59.000Z,102757.88
2023-11-24T12:00:30.423Z,102754.44
2023-11-24T12:02:58.933Z,102748.19
2023-11-24T12:05:27.784Z,102751.50
2023-11-24T12:07:54.829Z,102758.28
2023-11-24T12:10:22.683Z,102756.72
2023-11-24T12:12:50.108Z,102751.03
2023-11-24T12:15:19.158Z,102730.75
2023-11-24T12:17:46.708Z,102749.22
2023-11-24T12:20:15.935Z,102738.28
2023-11-24T12:22:44.498Z,102747.47
2023-11-24T12:25:14.459Z,102751.22
2023-11-24T12:27:45.063Z,102753.91
2023-11-24T12:30:14.282Z,102758.41
2023-11-24T12:32:44.659Z,102756.38
2023-11-24T12:35:12.656Z,102753.78
2023-11-24T12:37:41.811Z,102756.28
2023-11-24T12:40:13.270Z,102756.56
2023-11-24T12:42:42.415Z,102764.28
2023-11-24T12:45:10.202Z,102763.38
2023-11-24T12:50:16.458Z,102746.75
2023-11-24T12:52:45.841Z,102742.34
2023-11-24T12:55:13.017Z,102747.09
2023-11-24T12:57:43.586Z,102750.81
2023-11-24T13:00:14.873Z,102742.13
2023-11-24T13:02:42.500Z,102737.88
2023-11-24T13:05:11.109Z,102733.25
2023-11-24T13:07:40.872Z,102720.66
2023-11-24T13:10:11.270Z,102727.94
2023-11-24T13:12:40.509Z,102729.19
2023-11-24T13:15:08.938Z,102730.56
2023-11-24T13:17:36.450Z,102735.78
2023-11-24T13:20:05.190Z,102728.78
2023-11-24T13:22:35.243Z,102720.19
2023-11-24T13:25:02.917Z,102722.59
2023-11-24T13:27:32.091Z,102711.38
2023-11-24T13:29:58.903Z,102719.00
2023-11-24T13:32:25.689Z,102718.28
2023-11-24T13:34:52.888Z,102715.63
2023-11-24T13:37:20.334Z,102711.91
2023-11-24T13:39:47.209Z,102705.75
2023-11-24T13:42:14.133Z,102715.31
2023-11-24T13:44:43.903Z,102716.78
2023-11-24T13:47:14.113Z,102705.50
2023-11-24T13:49:41.988Z,102702.25
2023-11-24T13:52:11.116Z,102707.28
2023-11-24T13:54:39.267Z,102696.97
2023-11-24T13:57:07.280Z,102697.03
2023-11-24T13:59:34.104Z,102692.22
2023-11-24T14:02:01.289Z,102686.56
2023-11-24T14:04:33.770Z,102692.94
2023-11-24T14:07:00.966Z,102684.63
2023-11-24T14:09:33.126Z,102682.22
2023-11-24T14:12:00.793Z,102685.53
2023-11-24T14:14:30.956Z,102684.84
2023-11-24T14:16:57.791Z,102679.16
2023-11-24T14:19:24.841Z,102684.31
2023-11-24T14:21:53.613Z,102680.59
2023-11-24T14:24:20.419Z,102676.78
2023-11-24T14:26:47.228Z,102676.06
2023-11-24T14:29:14.653Z,102667.25
2023-11-24T14:31:42.063Z,102655.25
2023-11-24T14:34:09.707Z,102646.66
2023-11-24T14:36:40.827Z,102651.34
2023-11-24T14:39:20.559Z,102651.59
2023-11-24T14:41:48.370Z,102655.03
2023-11-24T14:44:15.349Z,102661.25
2023-11-24T14:46:42.283Z,102658.97
2023-11-24T14:49:11.986Z,102651.44
2023-11-24T14:51:39.845Z,102647.34
2023-11-24T14:54:06.793Z,102649.53
2023-11-24T14:56:36.453Z,102648.25
2023-11-24T14:59:06.976Z,102640.47
2023-11-24T15:01:34.710Z,102636.25
2023-11-24T15:04:01.715Z,102642.50
2023-11-24T15:06:29.120Z,102635.78
2023-11-24T15:09:01.339Z,102638.56
2023-11-24T15:12:01.043Z,102640.50
2023-11-24T15:14:34.616Z,102638.25
2023-11-24T15:17:11.434Z,102632.88
2023-11-24T15:19:40.577Z,102628.69
2023-11-24T15:22:10.822Z,102629.78
2023-11-24T15:24:39.844Z,102629.91
2023-11-24T15:27:09.088Z,102622.91
2023-11-24T15:29:38.837Z,102625.53
2023-11-24T15:32:11.507Z,102627.19
2023-11-24T15:34:38.370Z,102623.72
2023-11-24T15:37:05.768Z,102618.50
2023-11-24T15:39:42.974Z,102621.84
2023-11-24T15:42:10.684Z,102614.28
2023-11-24T15:44:39.486Z,102626.44
2023-11-24T15:47:11.350Z,102622.19
2023-11-24T15:49:40.807Z,102626.59
2023-11-24T15:52:11.272Z,102606.97
2023-11-24T15:54:38.671Z,102622.41
2023-11-24T15:57:05.711Z,102613.53
2023-11-24T15:59:35.148Z,102618.63
2023-11-24T16:02:04.273Z,102618.63
2023-11-24T16:04:34.677Z,102613.41
2023-11-24T16:07:07.916Z,102610.84
2023-11-24T16:09:37.703Z,102611.06
2023-11-24T16:12:09.187Z,102599.13
2023-11-24T16:14:38.846Z,102595.66
2023-11-24T16:17:06.917Z,102590.56
2023-11-24T16:19:34.170Z,102588.88
2023-11-24T16:22:02.304Z,102587.31
2023-11-24T16:24:29.263Z,102591.09
2023-11-24T16:26:56.146Z,102603.44
2023-11-24T16:29:23.799Z,102606.88
2023-11-24T16:31:52.591Z,102596.72
2023-11-24T16:34:26.610Z,102598.41
2023-11-24T16:36:57.309Z,102588.13
2023-11-24T16:39:24.666Z,102589.94
2023-11-24T16:41:51.666Z,102593.50
2023-11-24T16:44:19.559Z,102598.81
2023-11-24T16:47:01.064Z,102594.53
2023-11-24T16:49:31.977Z,102606.09
2023-11-24T16:52:01.243Z,102602.41
2023-11-24T16:54:28.239Z,102605.88
2023-11-24T16:56:55.039Z,102605.22
2023-11-24T16:59:23.132Z,102611.31
2023-11-24T17:01:53.166Z,102604.19
2023-11-24T17:04:20.965Z,102610.06
2023-11-24T17:06:51.467Z,102612.56
2023-11-24T17:09:20.217Z,102612.53
2023-11-24T17:11:47.424Z,102612.38
2023-11-24T17:14:16.037Z,102620.25
2023-11-24T17:16:43.593Z,102618.66
2023-11-24T17:19:10.613Z,102616.13
2023-11-24T17:21:40.794Z,102612.16
2023-11-24T17:24:07.901Z,102627.84
2023-11-24T17:26:35.144Z,102622.50
2023-11-24T17:29:03.551Z,102605.94
2023-11-24T17:31:32.297Z,102612.06
2023-11-24T17:33:59.377Z,102621.13
2023-11-24T17:36:26.392Z,102617.50
2023-11-24T17:38:53.153Z,102604.25
2023-11-24T17:41:20.027Z,102606.09
2023-11-24T17:43:46.781Z,102614.75
2023-11-24T17:46:13.740Z,102616.44
2023-11-24T17:48:42.985Z,102608.66
2023-11-24T17:51:10.057Z,102612.97
2023-11-24T17:53:38.718Z,102609.59
2023-11-24T17:56:05.866Z,102597.22
2023-11-24T17:58:33.537Z,102598.09
2023-11-24T18:01:01.582Z,102597.38
2023-11-24T18:03:28.551Z,102600.81
2023-11-24T18:05:55.415Z,102590.25
2023-11-24T18:08:23.711Z,102585.94
2023-11-24T18:10:50.769Z,102589.59
2023-11-24T18:13:18.466Z,102574.84
2023-11-24T18:15:45.430Z,102593.81
2023-11-24T18:18:13.094Z,102596.50
2023-11-24T18:20:41.426Z,102591.25
2023-11-24T18:23:08.380Z,102587.06
2023-11-24T18:25:39.839Z,102583.50
2023-11-24T18:28:09.460Z,102577.47
2023-11-24T18:30:36.720Z,102595.75
2023-11-24T18:33:05.899Z,102594.72
2023-11-24T18:35:35.772Z,102589.53
2023-11-24T18:38:02.780Z,102590.41
2023-11-24T18:40:29.648Z,102597.28
2023-11-24T18:42:56.550Z,102592.88
2023-11-24T18:45:23.368Z,102591.25
2023-11-24T18:47:50.236Z,102595.66
2023-11-24T18:50:17.941Z,102602.59
2023-11-24T18:52:45.780Z,102601.88
2023-11-24T18:55:13.680Z,102600.91
2023-11-24T18:57:44.306Z,102603.47
2023-11-24T19:00:15.130Z,102588.47
2023-11-24T19:02:42.093Z,102598.09
2023-11-24T19:05:11.264Z,102602.53
2023-11-24T19:07:39.201Z,102610.47
2023-11-24T19:10:06.732Z,102611.41
2023-11-24T19:12:33.620Z,102608.81
2023-11-24T19:15:00.488Z,102607.19
2023-11-24T19:17:27.520Z,102613.31
2023-11-24T19:19:54.359Z,102628.22
2023-11-24T19:22:21.327Z,102610.97
2023-11-24T19:24:49.046Z,102608.16
2023-11-24T19:27:16.101Z,102610.78
2023-11-24T19:29:42.893Z,102617.91
2023-11-24T19:32:12.913Z,102613.63
2023-11-24T19:34:39.815Z,102603.06
2023-11-24T19:37:08.141Z,102606.50
2023-11-24T19:39:37.338Z,102614.38
2023-11-24T19:42:07.125Z,102606.72
2023-11-24T19:44:33.946Z,102602.38
2023-11-24T19:47:00.787Z,102598.06
2023-11-24T19:49:27.681Z,102586.59
2023-11-24T19:51:54.527Z,102588.44
2023-11-24T19:54:21.344Z,102593.00
2023-11-24T19:56:48.132Z,102596.31
2023-11-24T19:59:14.975Z,102590.94
2023-11-24T20:01:41.830Z,102583.94
2023-11-24T20:04:08.849Z,102584.03
2023-11-24T20:06:35.813Z,102589.38
2023-11-24T20:09:04.778Z,102585.69
2023-11-24T20:11:31.642Z,102586.56
2023-11-24T20:13:58.425Z,102593.59
2023-11-24T20:16:25.829Z,102590.13
2023-11-24T20:18:52.690Z,102597.06
2023-11-24T20:21:19.988Z,102603.34
2023-11-24T20:23:46.954Z,102600.72
2023-11-24T20:26:13.795Z,102596.31
2023-11-24T20:28:40.729Z,102604.28
2023-11-24T20:31:08.528Z,102608.59
2023-11-24T20:33:35.369Z,102600.84
2023-11-24T20:36:03.314Z,102594.63
2023-11-24T20:38:30.430Z,102596.63
2023-11-24T20:40:58.484Z,102586.88
2023-11-24T20:43:25.414Z,102594.66
2023-11-24T20:45:52.343Z,102592.03
2023-11-24T20:48:19.213Z,102585.09
2023-11-24T20:50:46.072Z,102585.28
2023-11-24T20:53:12.989Z,102588.00
2023-11-24T20:55:39.961Z,102603.81
2023-11-24T20:58:06.896Z,102598.53
2023-11-24T21:00:35.095Z,102585.66
2023-11-24T21:03:02.188Z,102594.34
2023-11-24T21:05:29.065Z,102590.91
2023-11-24T21:07:55.863Z,102596.16
2023-11-24T21:10:22.766Z,102579.88
2023-11-24T21:12:49.585Z,102576.31
2023-11-24T21:15:16.418Z,102585.88
2023-11-24T21:17:45.461Z,102594.59
2023-11-24T21:20:15.077Z,102596.25
2023-11-24T21:22:41.979Z,102596.34
2023-11-24T21:25:08.997Z,102583.38
2023-11-24T21:27:35.896Z,102584.22
2023-11-24T21:30:02.864Z,102599.97
2023-11-24T21:32:32.331Z,102602.75
2023-11-24T21:35:00.637Z,102591.38
2023-11-24T21:37:30.033Z,102595.09
2023-11-24T21:40:01.924Z,102607.22
2023-11-24T21:42:33.165Z,102593.38
2023-11-24T21:45:01.058Z,102595.91
2023-11-24T21:47:31.534Z,102606.47
2023-11-24T21:49:58.961Z,102603.84
2023-11-24T21:52:27.886Z,102600.44
2023-11-24T21:54:54.735Z,102598.81
2023-11-24T21:57:21.633Z,102593.72
2023-11-24T21:59:48.403Z,102594.69
2023-11-24T22:02:15.459Z,102599.91
2023-11-24T22:04:42.658Z,102590.34
2023-11-24T22:07:09.900Z,102584.97
2023-11-24T22:09:36.826Z,102598.41
2023-11-24T22:12:04.998Z,102592.28
2023-11-24T22:14:31.766Z,102586.22
2023-11-24T22:16:58.726Z,102592.44
2023-11-24T22:19:25.664Z,102602.22
2023-11-24T22:21:52.954Z,102603.16
2023-11-24T22:24:19.836Z,102594.53
2023-11-24T22:26:46.632Z,102600.72
2023-11-24T22:29:13.624Z,102586.91
2023-11-24T22:31:40.876Z,102586.91
2023-11-24T22:34:07.978Z,102595.00
2023-11-24T22:36:34.829Z,102589.81
2023-11-24T22:39:01.873Z,102588.13
2023-11-24T22:41:28.868Z,102590.72
2023-11-24T22:43:56.790Z,102585.63
2023-11-24T22:46:25.586Z,102579.38
2023-11-24T22:48:53.675Z,102576.72
2023-11-24T22:51:27.162Z,102581.88
2023-11-24T22:53:55.042Z,102575.91
2023-11-24T22:56:23.885Z,102574.28
2023-11-24T22:58:52.614Z,102567.22
2023-11-24T23:01:21.641Z,102565.66
2023-11-24T23:03:52.359Z,102570.88
2023-11-24T23:06:19.764Z,102581.50
2023-11-24T23:08:47.502Z,102577.16
2023-11-24T23:11:18.728Z,102571.84
2023-11-24T23:13:48.227Z,102568.34
2023-11-24T23:16:16.121Z,102565.69
2023-11-24T23:18:45.912Z,102558.63
2023-11-24T23:21:14.590Z,102563.09
2023-11-24T23:23:42.543Z,102562.34
2023-11-24T23:26:11.658Z,102555.38
2023-11-24T23:28:39.833Z,102558.28
2023-11-24T23:31:09.980Z,102558.50
2023-11-24T23:33:37.527Z,102566.16
2023-11-24T23:36:05.496Z,102560.94
2023-11-24T23:38:32.841Z,102561.75
2023-11-24T23:41:03.444Z,102557.31
2023-11-24T23:43:31.025Z,102552.03
2023-11-24T23:45:58.146Z,102553.00
2023-11-24T23:48:25.220Z,102558.28
2023-11-24T23:50:53.170Z,102541.69
2023-11-24T23:53:24.251Z,102538.28
2023-11-24T23:55:51.891Z,102536.63
2023-11-24T23:58:20.014Z,102528.34
